SPHO

Coronel FAP Alfredo Mendivil Duarte Airport

Ayacucho, Peru
SPHO 231700Z 2318/2418 36005KT 9999 FEW040 TX27/2320Z TN11/2411Z TEMPO 2320/2323 8000 -TSRA FEW040CB BKN080
Issued Valid From Valid To
Oct-23 @ 17:00 UTC
(13 hours ago)
Oct-23 @ 18:00 UTC
(12 hours ago)
Oct-24 @ 18:00 UTC
(in 12 hours)
Oct-23 @ 18:00 to Oct-24 @ 18:00
SPHO 231700Z 2318/2418 36005KT 9999 FEW040 TX27/2320Z TN11/2411Z
Wind Visibility Clouds
360° at 5 knots 10,000+ meters
  • Few at 4,000' AGL
Expired Click to View Oct-23 @ 20:00 to Oct-23 @ 23:00
TEMPO 2320/2323 8000 -TSRA FEW040CB BKN080
Visibility Clouds Conditions
7,998 meters
  • Few at 4,000' AGL
  • Broken at 8,000' AGL
  • Light Thunderstorm
  • Light Rain
SPHO 231700Z 2318/2418 36005KT 9999 FEW040 TX27/2320Z TN11/2411Z TEMPO 2320/2323 8000 -TSRA FEW040CB BKN080
Issued Oct-23 @ 17:00 UTC
(13 hours ago)
Valid From Oct-23 @ 18:00 UTC
(12 hours ago)
Valid To Oct-24 @ 18:00 UTC
(in 12 hours)
Oct-23 @ 18:00 - Oct-24 @ 18:00
Wind Visibility
360° at 5 knots 10,000+ meters
Clouds
  • Few at 4,000' AGL
Oct-23 @ 20:00 - Oct-23 @ 23:00
Clouds
  • Few at 4,000' AGL
  • Broken at 8,000' AGL
Conditions
  • Light Thunderstorm
  • Light Rain